Crooked Creek Research Lab Weather observations

Data are for 10 minute period ending at time listed.
 Day   Time    Ave.   Ave.  Ave.  Vector   Max.   Stn.    Total    Solar   Ave.   Snow 
  of    of     Air    Rel.  Wind   Wind    Wind   Baro.  Precip.   Rad.    Soil   Depth
Year   Day     Temp.  Hum.  Speed  Dir.    Gust   Pres.                    Temp.       
2016   (PST)    F      %     mph   deg.    mph     mb.     in.     W/m2     F      in. 
---------------------------------------------------------------------------------------  
 126    8:20   40.0    33    4.9   139     11.5   688.5    0.00     636    999.0    -0.6
 126    8:30   39.7    32    5.7   147     18.8   687.8    0.00     621    999.0    -0.6
 126    8:40   39.3    30    5.8   139     14.3   688.0    0.00     547    999.0    -0.6
 126    8:50   39.0    30    5.6   136     12.2   687.8    0.00     525    999.0    -0.6
 126    9:00   39.3    31    3.7   130      9.7   688.3    0.00     526    999.0    -0.7
 126    9:10   39.5    31    5.4   152     11.9   687.6    0.00     671    999.0    -0.6
 126    9:20   40.4    31    6.3   141     14.8   688.0    0.00     780    999.0    -0.5
 126    9:30   40.5    32    7.2   137     16.0   687.9    0.00     811    999.0    -0.6
 126    9:40   40.6    33    6.4   124     13.2   687.8    0.00     808    999.0    -0.5
 126    9:50   40.5    33    5.6   137     13.6   687.9    0.00     862    999.0    -0.5
 126   10:00   40.9    32    5.7   142     13.2   688.0    0.00     879    999.0    -0.6
 126   10:10   41.4    30    6.5   182     16.1   687.7    0.00     818    999.0    -0.6
 126   10:20   41.4    32    6.5   169     16.8   687.5    0.00     934    999.0    -0.5
 126   10:30   41.5    32    6.8   137     18.4   687.5    0.00     880    999.0    -0.5
 126   10:40   41.6    33    7.0   140     17.5   688.0    0.00     948    999.0    -0.4
 126   10:50   41.6    32    8.3   150     19.1   687.7    0.00     900    999.0    -0.5
 126   11:00   41.4    33    7.4   125     15.8   687.5    0.00    1039    999.0    -0.5
 126   11:10   41.4    32    8.6   131     18.6   687.6    0.00     970    999.0    -0.6
 126   11:20   42.1    32    6.9   147     16.7   687.8    0.00     994    999.0    -0.5
 126   11:30   42.6    31    7.9   147     18.6   687.8    0.00    1011    999.0    -0.5
 126   11:40   42.0    32    7.6   127     17.7   687.4    0.00    1022    999.0    -0.4
 126   11:50   42.6    33    6.4   137     21.5   687.5    0.00     962    999.0    -0.5
 126   12:00   42.1    34    5.7   154     15.5   687.3    0.00     512    999.0    -0.5
 126   12:10   40.5    36    7.8   130     17.8   687.3    0.00     635    999.0    -0.6
 126   12:20   41.1    36    8.4   131     20.9   687.2    0.00     859    999.0    -0.4
 126   12:30   41.2    36    6.5   144     18.5   687.1    0.00     589    999.0    -0.6
 126   12:40   40.9    35    6.7   133     18.6   687.3    0.00     610    999.0    -0.5
 126   12:50   40.3    35    6.7   137     18.1   687.3    0.00     525    999.0    -0.6
 126   13:00   40.7    35    6.9   139     18.3   687.1    0.00     725    999.0    -0.6
 126   13:10   41.2    35    6.5   140     15.3   687.0    0.00     499    999.0    -0.6
 126   13:20   40.6    37    6.7   140     14.8   687.0    0.00     536    999.0    -0.6
 126   13:30   42.0    33    7.8   144     19.3   687.0    0.00     673    999.0    -0.5
 126   13:40   40.4    36    7.9   129     18.6   686.9    0.00     434    999.0    -0.6
 126   13:50   40.4    35    5.6   137     16.4   687.3    0.00     421    999.0    -0.6
 126   14:00   41.0    32    8.8   132     20.2   687.1    0.00     430    999.0    -0.7
 126   14:10   40.4    33    8.0   139     16.1   686.9    0.00     478    999.0    -0.6
 126   14:20   40.5    34    8.8   140     16.7   686.8    0.00     507    999.0    -0.6
 126   14:30   40.5    36    8.6   131     16.9   686.5    0.00     333    999.0    -0.7
 126   14:40   39.9    37    7.0   132     16.1   686.5    0.00     314    999.0    -0.6
 126   14:50   39.7    36    7.5   139     16.0   686.2    0.00     264    999.0    -0.6
 126   15:00   39.6    34    6.2   128     13.4   686.7    0.00     310    999.0    -0.6
 126   15:10   40.3    33    6.1   132     16.3   686.5    0.00     318    999.0    -0.7
 126   15:20   41.1    33    7.4   128     18.6   686.4    0.00     640    999.0    -0.5
 126   15:30   43.0    30    7.2   130     15.5   686.4    0.00     744    999.0    -0.7
 126   15:40   42.9    30    7.8   152     17.9   686.7    0.00     636    999.0    -0.6
 126   15:50   43.0    30    6.7   149     19.1   686.4    0.00     664    999.0    -0.6
 126   16:00   43.4    31    7.1   151     25.9   686.4    0.00     592    999.0    -0.6
 126   16:10   42.7    32    7.3   132     19.2   686.1    0.00     492    999.0    -0.7
 126   16:20   43.2    30    6.9   150     18.3   686.3    0.00     589    999.0    -0.7
 126   16:30   42.2    32    7.4   138     16.6   686.5    0.00     532    999.0    -0.8
 126   16:40   41.3    37    9.0   133     18.6   686.2    0.00     459    999.0    -0.7
 126   16:50   40.7    38    7.8   145     20.5   686.0    0.00     380    999.0    -0.7
 126   17:00   40.7    36    5.8   130     14.5   685.8    0.00     401    999.0    -0.7
 126   17:10   40.3    37    8.3   136     17.0   686.0    0.00     372    999.0    -0.6
 126   17:20   40.3    34    5.7   129     14.4   686.1    0.00     227    999.0    -0.7
 126   17:30   40.3    31    5.8   171     13.4   686.2    0.00     219    999.0    -0.7
 126   17:40   39.2    34    4.6   156     10.7   686.4    0.00     110    999.0    -0.7
 126   17:50   38.1    35    5.0   146     12.9   686.1    0.00      68    999.0    -0.7
 126   18:00   37.5    37    5.0   146     12.3   686.5    0.00      89    999.0    -0.6
 126   18:10   37.5    38    5.0   156     11.5   686.5    0.00      71    999.0    -0.6
 126   18:20   37.3    39    3.4   152     13.1   686.7    0.00      21    999.0    -0.6
 126   18:30   36.9    40    5.1   147     12.7   686.5    0.00       5    999.0    -0.6
 126   18:40   36.6    41    3.6   174     12.2   686.5    0.00       1    999.0    -0.6
 126   18:50   36.5    42    2.3   163      6.9   686.4    0.00       0    999.0    -0.6
 126   19:00   35.2    50    5.0    28     14.9   686.1    0.00       0    999.0    -0.7
 126   19:10   32.0    72    6.1    84     16.4   686.9    0.00       0    999.0    -0.7
 126   19:20   29.5    86    2.0   127      6.3   686.8    0.00       0    999.0    -0.6
 126   19:30   28.8    90    1.7   293      3.9   686.5    0.00       0    999.0    -0.6
 126   19:40   28.5    91    1.3   312      2.9   686.1    0.00       0    999.0    -0.6
 126   19:50   28.5    91    2.0    18      5.8   686.0    0.00       0    999.0    -0.6
 126   20:00   28.8    90    2.9   121     12.7   686.0    0.00       0    999.0    -0.6
 126   20:10   29.0    90    3.4   347      5.7   685.8    0.00       0    999.0    -0.6
 126   20:20   29.3    87    3.2   357      6.0   686.3    0.00       0    999.0    -0.6
 126   20:30   29.5    82    4.9   354     11.2   685.7    0.00       0    999.0    -0.6
 126   20:40   29.1    84    3.1   358      6.0   686.2    0.00       0    999.0    -0.6
 126   20:50   29.0    86    3.0   355      7.2   686.1    0.00       0    999.0    -0.6
 126   21:00   29.3    84    1.9     7      3.9   686.0    0.00       0    999.0    -0.6
 126   21:10   29.5    84    0.7   345      2.1   686.0    0.00       0    999.0    -0.6
 126   21:20   29.8    78    3.0    28      5.3   686.1    0.00       0    999.0    -0.6
 126   21:30   30.0    80    1.4    14      2.5   686.0    0.00       0    999.0    -0.6
 126   21:40   30.0    82    2.2    20      7.8   685.9    0.00       0    999.0    -0.6
 126   21:50   28.8    92    1.7   135      4.7   685.7    0.00       0    999.0    -0.7
 126   22:00   27.8    97    3.6   342      6.9   685.6    0.00       0    999.0     7.9
 126   22:10   27.3    99    2.2   325      4.5   685.4    0.00       0    999.0    55.8
 126   22:20   27.0    99    1.3   302      4.7   685.4    0.00       0    999.0    94.5
 126   22:30   26.4    99    3.4   347      6.2   685.5    0.00       0    999.0    94.5
 126   22:40   26.0    99    2.0     3      4.7   685.5    0.00       0    999.0    65.8
 126   22:50   26.1    99    1.3   359      3.9   685.3    0.00       0    999.0    84.4
 126   23:00   26.0    99    1.5   352      3.6   685.2    0.00       0    999.0    74.8
 126   23:10   26.1    99    0.5   106      1.8   685.3    0.00       0    999.0    52.7
 126   23:20   26.2    99    0.5    11      1.9   685.1    0.00       0    999.0    94.5
 126   23:30   26.2   100    1.2   360      3.1   685.0    0.00       0    999.0    94.5
 126   23:40   26.1    99    1.1   284      3.7   684.7    0.00       0    999.0    84.9
 126   23:50   25.8    98    2.9   251      5.6   685.0    0.00       0    999.0    26.6
 127    0:00   25.2    97    2.7   211      7.2   684.7    0.00       0    999.0    16.9
 127    0:10   25.7    98    3.1   218      9.9   684.9    0.00       0    999.0    24.3
 127    0:20   26.2    99    2.2   198      6.4   685.2    0.00       0    999.0    94.5
 127    0:30   26.2    98    2.6   230      7.3   684.7    0.00       0    999.0    94.5
 127    0:40   26.2    99    2.3   143      5.8   685.0    0.00       0    999.0    94.5
 127    0:50   26.1    99    1.3   119      4.2   684.7    0.00       0    999.0    94.5
 127    1:00   25.6    99    1.1   263      3.9   684.4    0.00       0    999.0    84.5
 127    1:10   25.3    98    1.2   207      3.4   684.2    0.00       0    999.0    47.1
 127    1:20   25.2    99    0.9   194      4.5   684.4    0.00       0    999.0     6.5
 127    1:30   25.1    99    4.1   187     15.6   684.5    0.00       0    999.0    74.7
 127    1:40   24.3    98    3.9   200      9.9   684.5    0.00       0    999.0    94.5
 127    1:50   23.7    99    2.0   200      6.2   684.2    0.00       0    999.0    67.4
 127    2:00   23.6    99    1.9   291      4.2   684.3    0.00       0    999.0    94.5
 127    2:10   23.6    99    0.5   285      2.9   684.2    0.00       0    999.0    94.5
 127    2:20   23.7    99    1.3    67      6.9   684.4    0.00       0    999.0    94.5
 127    2:30   23.8    99    2.3    76      4.9   684.2    0.00       0    999.0    94.5
 127    2:40   24.0    99    2.5    27      4.7   684.2    0.00       0    999.0    94.5
 127    2:50   23.9    99    2.8   338      6.5   684.0    0.00       0    999.0    94.5
 127    3:00   23.9    99    4.5   335     10.1   683.8    0.00       0    999.0    75.1
 127    3:10   23.9    99    1.9   139      6.6   683.7    0.00       0    999.0    85.0
 127    3:20   23.9    99    1.6   154      2.5   683.7    0.00       0    999.0    75.5
 127    3:30   23.4    99    0.6   175      1.8   683.5    0.00       0    999.0    94.5
 127    3:40   23.4    99    1.1   186      2.7   684.0    0.00       0    999.0    94.5
 127    3:50   23.3    99    0.0     0      0.0   683.9    0.00       0    999.0    94.5
 127    4:00   23.2    99    0.0     0      0.0   683.8    0.00       0    999.0    94.5
 127    4:10   23.2    99    0.1   224      1.0   683.8    0.00       0    999.0    94.5
 127    4:20   23.5    99    0.2   173      1.0   683.9    0.00       0    999.0    94.5
 127    4:30   23.8    99    0.4   156      1.8   683.8    0.00       0    999.0    94.5
 127    4:40   23.8    99    0.8    10      3.4   683.9    0.00       0    999.0    94.5
 127    4:50   24.1   100    2.6     8      6.0   684.3    0.00       0    999.0    94.5
 127    5:00   24.9   100    2.6     4      6.0   684.3    0.00       1    999.0    94.5
 127    5:10   25.5   100    0.8    32      3.2   684.2    0.00       2    999.0    94.5
 127    5:20   25.6   100    1.5    18      5.7   683.9    0.00       6    999.0    94.5
 127    5:30   26.0   100    2.0     4      5.6   684.4    0.00      13    999.0    84.6
 127    5:40   26.5    99    2.2     2      7.5   684.1    0.00      11    999.0    54.9
 127    5:50   26.1    99    3.1    25      9.4   684.5    0.00      10    999.0    56.1
 127    6:00   26.2    99    3.5    18      8.3   684.5    0.00      12    999.0    37.1
 127    6:10   26.1    99    2.1    14      6.6   684.4    0.00       7    999.0    94.5
 127    6:20   26.1    99    3.7    12      9.1   684.5    0.00      14    999.0    94.5
 127    6:30   26.4    99    3.6    10      6.6   684.7    0.00      16    999.0    94.5
 127    6:40   27.2    99    3.3    16      7.2   684.1    0.00      25    999.0    94.5
 127    6:50   28.1    99    4.9   351     11.0   684.5    0.00      30    999.0    94.5
 127    7:00   28.1    98    5.2   357     10.8   684.5    0.00      26    999.0    94.5
 127    7:10   28.2    98    4.2     3     11.0   684.3    0.00      33    999.0    94.5
 127    7:20   28.6    98    4.4     1      9.6   684.6    0.00      40    999.0    94.5
 127    7:30   28.7    97    4.2    10      9.4   684.5    0.00      34    999.0    94.5
 127    7:40   28.9    96    5.6   355     14.2   684.7    0.00      41    999.0    94.5
 127    7:50   28.2    95    4.4    13     11.3   684.5    0.00      32    999.0    94.5
 127    8:00   28.3    95    4.6    23     10.9   684.8    0.00      69    999.0    94.0
 127    8:10   29.2    93    5.1    20      9.3   684.7    0.00      44    999.0    45.7

Return to Crooked Creek Research Lab graphs page.


Western Regional Climate Center,wrcc@dri.edu